Time;durP1;ratioP1;P1;durP2;ratioP2;P2;SDS_P1;SDS_P2;PMS_P1;PMS_P2;Temp;Humidity;BMP_temperature;BMP_pressure;BME280_temperature;BME280_humidity;BME280_pressure;Samples;Min_cycle;Max_cycle;Signal;HPM_P1;HPM_P2
2023/10/10 05:23:31;;;;;;;;;9.50;9.50;;;;;27.23;34.77;101664.31;4982200;28;45311;-61
2023/10/10 05:25:58;;;;;;;;;7.50;7.50;;;;;27.39;34.85;101671.91;4981144;28;45379;-61
2023/10/10 05:28:29;;;;;;;;;10.50;10.50;;;;;27.34;34.93;101661.34;4981616;28;46093;-61
2023/10/10 05:30:55;;;;;;;;;6.75;6.75;;;;;27.34;34.64;101653.09;4981491;28;45255;-61
2023/10/10 05:33:21;;;;;;;;;9.00;9.00;;;;;27.33;34.99;101653.25;4981898;28;45374;-55
2023/10/10 05:35:49;;;;;;;;;11.25;10.25;;;;;27.31;35.09;101664.41;4981807;28;48756;-56
2023/10/10 05:38:16;;;;;;;;;7.75;7.25;;;;;27.25;34.70;101665.03;4981787;28;45306;-56
2023/10/10 05:40:43;;;;;;;;;11.25;9.75;;;;;27.27;34.43;101673.16;4970792;28;45363;-57
2023/10/10 05:43:09;;;;;;;;;9.50;9.50;;;;;27.19;34.01;101654.66;4961788;28;45272;-55
2023/10/10 05:45:38;;;;;;;;;9.25;9.00;;;;;27.12;34.43;101650.81;4980501;28;45264;-55
2023/10/10 05:48:07;;;;;;;;;12.25;10.75;;;;;27.09;34.56;101651.97;4966420;28;46450;-54
2023/10/10 05:50:32;;;;;;;;;9.50;9.50;;;;;27.08;34.63;101649.38;4961910;28;45273;-55
2023/10/10 05:53:00;;;;;;;;;11.25;10.00;;;;;27.10;35.29;101650.09;4961810;28;45271;-54
2023/10/10 05:55:29;;;;;;;;;11.25;8.50;;;;;27.10;35.04;101650.97;4980374;28;45539;-56
2023/10/10 05:57:57;;;;;;;;;13.75;12.00;;;;;27.08;34.76;101644.72;4980796;28;46220;-54
2023/10/10 06:00:26;;;;;;;;;12.00;8.00;;;;;27.10;34.67;101650.97;4981302;28;45301;-56
2023/10/10 06:02:51;;;;;;;;;13.75;12.75;;;;;27.10;35.21;101653.72;4980655;28;45438;-55
2023/10/10 06:05:17;;;;;;;;;11.50;11.50;;;;;27.13;35.34;101652.53;4980954;28;56233;-58
2023/10/10 06:07:43;;;;;;;;;10.50;10.50;;;;;27.24;35.56;101655.03;4976242;28;47450;-57
2023/10/10 06:10:16;;;;;;;;;10.75;9.00;;;;;27.34;35.41;101664.09;4973219;28;45751;-55
2023/10/10 06:12:45;;;;;;;;;7.75;5.00;;;;;27.42;34.85;101649.53;4980661;28;45291;-55
2023/10/10 06:15:17;;;;;;;;;11.75;11.75;;;;;27.45;34.93;101647.34;4980420;28;45339;-54
2023/10/10 06:17:44;;;;;;;;;11.75;10.50;;;;;27.43;35.06;101660.41;4981168;28;47028;-54
2023/10/10 06:20:10;;;;;;;;;12.00;10.25;;;;;27.44;34.57;101661.28;4981022;28;45356;-54
2023/10/10 06:22:37;;;;;;;;;10.00;10.00;;;;;27.45;34.57;101655.63;4981191;28;45390;-57
2023/10/10 06:25:05;;;;;;;;;12.50;11.50;;;;;27.50;34.73;101664.25;4980858;28;45563;-56
2023/10/10 06:27:36;;;;;;;;;14.50;11.50;;;;;27.48;34.90;101669.06;4980682;28;46350;-55
2023/10/10 06:30:04;;;;;;;;;14.00;13.00;;;;;27.49;34.21;101673.53;4980296;28;45252;-54
2023/10/10 06:32:31;;;;;;;;;11.50;10.25;;;;;27.51;34.45;101665.13;4980871;28;45263;-53
2023/10/10 06:37:41;;;;;;;;;10.00;10.00;;;;;27.51;34.50;101670.63;4980517;28;46076;-56
2023/10/10 06:40:11;;;;;;;;;12.50;11.50;;;;;27.55;34.53;101663.84;4980683;28;45789;-53
2023/10/10 06:42:37;;;;;;;;;12.25;12.00;;;;;27.58;34.81;101665.38;4980761;28;45265;-54
2023/10/10 06:45:21;;;;;;;;;10.50;10.50;;;;;27.62;34.76;101669.56;4980485;28;45228;-55
2023/10/10 06:47:50;;;;;;;;;10.25;10.25;;;;;27.67;34.61;101665.31;4980450;28;45182;-56
2023/10/10 06:50:21;;;;;;;;;13.25;10.00;;;;;27.74;34.41;101669.16;4980619;28;45298;-53
2023/10/10 06:52:55;;;;;;;;;12.25;12.25;;;;;27.74;34.66;101663.63;4980445;28;45339;-54
2023/10/10 06:55:36;;;;;;;;;11.25;11.25;;;;;27.76;34.12;101671.75;4980354;28;45335;-55
2023/10/10 06:58:02;;;;;;;;;11.25;11.00;;;;;27.72;33.81;101667.59;4980351;28;46252;-55
2023/10/10 07:00:42;;;;;;;;;11.50;11.50;;;;;27.66;34.22;101668.22;4980548;28;45319;-56
2023/10/10 07:03:07;;;;;;;;;13.00;11.25;;;;;27.66;34.12;101666.31;4980670;28;45448;-52
2023/10/10 07:05:35;;;;;;;;;13.00;11.75;;;;;27.72;34.54;101662.97;4980627;28;45216;-56
2023/10/10 07:08:12;;;;;;;;;13.25;11.25;;;;;27.70;34.42;101658.63;4973239;28;46658;-57
2023/10/10 07:10:42;;;;;;;;;10.50;9.00;;;;;27.78;34.02;101665.06;4975418;28;45353;-54
2023/10/10 07:13:13;;;;;;;;;14.25;12.25;;;;;27.76;34.19;101669.00;4980252;28;45489;-55
2023/10/10 07:15:39;;;;;;;;;13.00;12.50;;;;;27.80;34.41;101662.16;4979945;28;45889;-56
2023/10/10 07:18:09;;;;;;;;;13.25;12.00;;;;;27.82;34.51;101669.22;4974517;28;45393;-54
2023/10/10 07:26:47;;;;;;;;;16.00;13.75;;;;;28.01;34.16;101668.16;4862036;29;45501;-55
2023/10/10 07:29:29;;;;;;;;;2.00;2.00;;;;;28.08;34.24;101662.84;4936752;28;45453;-54
2023/10/10 07:32:04;;;;;;;;;13.25;13.25;;;;;28.19;33.62;101659.88;4976093;28;45299;-54
2023/10/10 07:34:39;;;;;;;;;10.50;10.50;;;;;28.21;34.37;101669.72;4980071;28;45231;-53
2023/10/10 07:37:10;;;;;;;;;14.75;11.00;;;;;28.32;34.11;101668.59;4979483;28;46146;-55
2023/10/10 07:39:36;;;;;;;;;11.25;11.25;;;;;28.39;33.80;101668.78;4976773;28;45991;-56
2023/10/10 07:42:09;;;;;;;;;13.25;11.75;;;;;28.43;34.25;101668.28;4965261;28;45464;-55
2023/10/10 07:44:35;;;;;;;;;12.50;11.50;;;;;28.46;33.34;101679.00;4978735;28;45367;-55
2023/10/10 07:49:34;;;;;;;;;17.25;13.50;;;;;28.48;33.65;101665.06;4979865;28;45469;-57
2023/10/10 07:52:02;;;;;;;;;15.25;13.50;;;;;28.62;33.39;101678.22;4980432;28;45394;-54
2023/10/10 07:54:29;;;;;;;;;13.50;11.75;;;;;28.72;33.40;101683.63;4979312;28;45292;-56
2023/10/10 07:57:03;;;;;;;;;19.00;13.50;;;;;28.66;33.92;101689.81;4979805;28;46087;-52
2023/10/10 07:59:29;;;;;;;;;14.50;11.50;;;;;28.71;33.48;101688.28;4978216;28;45328;-57
2023/10/10 08:01:56;;;;;;;;;12.50;12.00;;;;;28.76;33.11;101690.53;4979404;28;45256;-55
2023/10/10 08:04:22;;;;;;;;;15.25;14.25;;;;;28.83;33.38;101695.28;4979629;28;45363;-55
2023/10/10 08:06:47;;;;;;;;;14.25;14.25;;;;;28.90;33.61;101689.94;4979564;28;46107;-56
2023/10/10 08:11:45;;;;;;;;;17.00;16.00;;;;;28.91;32.83;101692.53;4979498;28;45236;-55
2023/10/10 08:14:11;;;;;;;;;14.00;13.00;;;;;28.98;33.30;101698.25;4979101;28;45280;-56
2023/10/10 08:16:39;;;;;;;;;14.50;11.75;;;;;28.98;33.20;101696.34;4978754;28;45493;-57
2023/10/10 08:19:06;;;;;;;;;12.00;10.75;;;;;29.01;33.52;101703.44;4978545;28;47150;-56
2023/10/10 08:21:38;;;;;;;;;15.00;15.00;;;;;29.04;32.91;101700.34;4978751;28;45344;-54
2023/10/10 08:24:08;;;;;;;;;13.75;13.75;;;;;29.10;33.46;101707.94;4978353;28;45386;-57
2023/10/10 08:26:41;;;;;;;;;15.25;13.00;;;;;29.12;33.02;101707.78;4978346;28;45560;-52
2023/10/10 08:29:10;;;;;;;;;14.75;14.00;;;;;29.13;33.32;101706.75;4978494;28;47225;-55
2023/10/10 08:31:38;;;;;;;;;13.50;13.50;;;;;29.19;32.62;101704.19;4978968;28;45299;-54
2023/10/10 08:34:04;;;;;;;;;15.50;14.75;;;;;29.21;33.19;101696.59;4979659;28;45262;-54
2023/10/10 08:36:31;;;;;;;;;15.25;15.00;;;;;29.20;33.59;101694.88;4979211;28;45406;-56
2023/10/10 08:38:59;;;;;;;;;13.25;11.75;;;;;29.12;32.82;101685.69;4979019;28;46234;-56
2023/10/10 08:41:29;;;;;;;;;18.50;16.00;;;;;29.14;33.11;101683.63;4979243;28;45250;-55
2023/10/10 08:43:58;;;;;;;;;15.50;15.00;;;;;29.18;33.42;101680.34;4979378;28;45425;-55
2023/10/10 08:46:29;;;;;;;;;16.00;13.75;;;;;29.17;33.40;101681.41;4978986;28;45296;-54
2023/10/10 08:48:59;;;;;;;;;11.00;11.00;;;;;29.20;33.45;101689.34;4979303;28;46176;-56
2023/10/10 08:51:33;;;;;;;;;22.50;15.25;;;;;29.21;33.39;101684.69;4979085;28;45305;-54
2023/10/10 08:54:00;;;;;;;;;16.50;14.25;;;;;29.23;33.23;101682.63;4982348;28;45333;-54
2023/10/10 08:56:25;;;;;;;;;16.50;15.25;;;;;29.26;33.48;101688.66;4982060;28;45272;-53
2023/10/10 08:58:50;;;;;;;;;11.75;8.50;;;;;29.28;33.10;101692.13;4982345;28;46001;-55
2023/10/10 09:01:16;;;;;;;;;16.00;15.00;;;;;29.37;33.07;101683.88;4982324;28;45474;-54
2023/10/10 09:03:45;;;;;;;;;17.25;13.50;;;;;29.47;32.86;101688.22;4982896;28;45561;-57
2023/10/10 09:06:14;;;;;;;;;15.50;15.25;;;;;29.55;33.16;101681.84;4982380;28;45473;-56
2023/10/10 09:08:43;;;;;;;;;12.75;12.75;;;;;29.64;33.65;101687.22;4969776;28;46167;-57
2023/10/10 09:11:09;;;;;;;;;15.75;15.00;;;;;29.72;33.61;101681.69;4982313;28;45381;-53
2023/10/10 09:13:48;;;;;;;;;15.00;13.75;;;;;29.70;33.23;101677.34;4982200;28;45438;-55
2023/10/10 09:16:13;;;;;;;;;16.00;14.50;;;;;29.86;33.11;101682.03;4982124;28;45539;-56
2023/10/10 09:18:39;;;;;;;;;16.25;13.25;;;;;29.88;32.91;101683.56;4982052;28;46353;-56
2023/10/10 09:21:21;;;;;;;;;14.50;14.50;;;;;29.98;32.99;101676.00;4982400;28;45188;-57
2023/10/10 09:24:06;;;;;;;;;15.75;11.50;;;;;30.04;32.97;101677.19;4982034;28;45248;-55
2023/10/10 09:26:36;;;;;;;;;12.75;12.25;;;;;30.07;32.73;101674.09;4981149;28;45535;-54
2023/10/10 09:29:15;;;;;;;;;12.75;12.75;;;;;29.96;33.36;101671.69;4981539;28;46614;-55
2023/10/10 09:31:45;;;;;;;;;13.50;12.25;;;;;29.94;33.11;101669.06;4981965;28;45493;-55
2023/10/10 09:34:12;;;;;;;;;15.25;13.25;;;;;30.06;33.16;101672.38;4981419;28;45278;-53
2023/10/10 09:36:39;;;;;;;;;13.00;11.00;;;;;30.07;33.47;101671.31;4982004;28;45284;-56
2023/10/10 09:39:09;;;;;;;;;14.50;13.00;;;;;30.06;33.49;101664.94;4982024;28;46976;-56
2023/10/10 09:42:00;;;;;;;;;12.25;12.25;;;;;30.19;32.90;101653.34;4981892;28;45401;-58
2023/10/10 09:49:45;;;;;;;;;14.50;12.25;;;;;30.21;32.81;101655.91;4981687;28;45322;-55
2023/10/10 09:57:42;;;;;;;;;16.50;12.25;;;;;30.38;33.11;101658.47;4981360;28;45354;-56
2023/10/10 10:00:14;;;;;;;;;14.00;11.50;;;;;30.43;32.78;101667.09;4981524;28;46157;-55
2023/10/10 10:02:49;;;;;;;;;13.25;12.25;;;;;30.45;32.86;101669.69;4981612;28;45388;-56
2023/10/10 10:05:18;;;;;;;;;12.75;10.00;;;;;30.51;33.32;101665.34;4981191;28;45251;-57
2023/10/10 10:07:56;;;;;;;;;10.50;10.50;;;;;30.54;32.89;101662.28;4976287;28;45448;-55
2023/10/10 10:10:49;;;;;;;;;15.50;13.75;;;;;30.61;33.43;101664.16;4961423;28;46374;-56
2023/10/10 10:13:37;;;;;;;;;8.75;8.25;;;;;30.48;32.26;101663.78;4981449;28;45244;-55
2023/10/10 10:16:19;;;;;;;;;12.75;11.00;;;;;30.52;32.73;101665.22;4981481;28;45462;-54
2023/10/10 10:18:46;;;;;;;;;12.25;11.25;;;;;30.44;32.70;101666.06;4981415;28;45173;-55
2023/10/10 10:21:30;;;;;;;;;8.75;8.75;;;;;30.50;33.04;101666.38;4981184;28;46215;-56
2023/10/10 10:24:15;;;;;;;;;10.00;8.25;;;;;30.56;32.71;101649.09;4980797;28;45203;-55
2023/10/10 10:26:44;;;;;;;;;16.00;11.25;;;;;30.59;32.50;101654.28;4980584;28;45189;-54
2023/10/10 10:29:26;;;;;;;;;12.25;8.75;;;;;30.74;32.71;101663.56;4980328;28;45440;-55
2023/10/10 10:31:57;;;;;;;;;10.75;10.25;;;;;30.80;31.78;101651.75;4980808;28;46056;-57
2023/10/10 10:34:31;;;;;;;;;10.00;10.00;;;;;31.01;31.97;101654.78;4981187;28;45244;-55
2023/10/10 10:37:21;;;;;;;;;9.25;7.75;;;;;31.00;31.69;101649.41;4981225;28;45251;-58
2023/10/10 10:42:37;;;;;;;;;9.75;9.75;;;;;31.23;31.00;101647.56;4980687;28;45292;-56
2023/10/10 10:45:33;;;;;;;;;12.25;10.50;;;;;31.25;31.05;101645.47;4980178;28;45293;-55
2023/10/10 10:47:59;;;;;;;;;9.25;7.00;;;;;31.32;30.53;101643.69;4980010;28;45370;-58
2023/10/10 10:50:40;;;;;;;;;12.25;8.75;;;;;31.61;30.75;101647.63;4980782;28;45235;-54
2023/10/10 10:53:30;;;;;;;;;8.25;8.25;;;;;31.76;30.53;101638.34;4980044;28;45431;-56
2023/10/10 10:57:01;;;;;;;;;9.75;8.50;;;;;31.79;29.73;101637.13;4975734;28;45512;-58
2023/10/10 11:01:27;;;;;;;;;10.25;8.50;;;;;32.53;28.81;101629.75;4980655;28;45322;-56
2023/10/10 11:03:54;;;;;;;;;12.00;8.50;;;;;33.05;27.13;101636.03;4980532;28;46077;-57
2023/10/10 11:06:21;;;;;;;;;12.25;7.75;;;;;33.66;26.54;101621.72;4980845;28;45438;-57
2023/10/10 11:11:27;;;;;;;;;8.75;8.50;;;;;34.86;25.64;101619.59;4980456;28;45418;-58
2023/10/10 11:14:00;;;;;;;;;7.50;7.00;;;;;35.39;25.32;101617.81;4979975;28;45414;-57
2023/10/10 11:16:39;;;;;;;;;9.25;8.00;;;;;35.58;23.41;101618.91;4979279;28;45450;-57
2023/10/10 11:22:15;;;;;;;;;6.50;4.50;;;;;36.43;22.66;101614.34;4958860;28;45675;-57
2023/10/10 11:24:46;;;;;;;;;10.00;8.00;;;;;36.70;22.71;101622.47;4979834;28;45275;-57
2023/10/10 11:29:45;;;;;;;;;10.50;8.25;;;;;37.10;22.33;101611.06;4980315;28;45244;-56
2023/10/10 11:32:36;;;;;;;;;11.00;8.25;;;;;37.51;21.78;101607.84;4979476;28;45570;-57
2023/10/10 11:35:21;;;;;;;;;5.25;5.25;;;;;38.14;20.62;101600.22;4980051;28;45185;-58
2023/10/10 11:37:48;;;;;;;;;7.75;7.25;;;;;38.90;20.58;101593.28;4980305;28;45393;-58
2023/10/10 11:42:55;;;;;;;;;8.50;6.00;;;;;39.28;19.22;101590.16;4979819;28;45219;-58
2023/10/10 11:45:25;;;;;;;;;9.50;9.50;;;;;39.17;19.34;101585.38;4980081;28;46374;-58
2023/10/10 11:47:52;;;;;;;;;6.25;6.25;;;;;39.09;18.66;101572.53;4979779;28;45505;-58
2023/10/10 11:50:22;;;;;;;;;9.25;6.50;;;;;39.55;18.04;101577.47;4980058;28;45303;-58
2023/10/10 11:52:58;;;;;;;;;7.25;7.25;;;;;40.44;18.11;101579.06;4979718;28;45450;-57
2023/10/10 11:55:27;;;;;;;;;8.00;8.00;;;;;40.78;18.59;101576.41;4979338;28;46210;-58
2023/10/10 11:57:58;;;;;;;;;8.00;8.00;;;;;41.39;17.88;101577.63;4979604;28;45253;-58
2023/10/10 12:00:43;;;;;;;;;7.00;6.75;;;;;41.61;16.82;101561.69;4979834;28;45326;-58
2023/10/10 12:03:10;;;;;;;;;8.00;8.00;;;;;41.91;17.71;101555.69;4979379;28;45352;-58
2023/10/10 12:05:37;;;;;;;;;9.00;7.25;;;;;42.19;17.63;101558.41;4979556;28;47233;-58
2023/10/10 12:08:07;;;;;;;;;11.50;8.75;;;;;42.92;15.74;101556.25;4970870;28;45301;-57
2023/10/10 12:10:52;;;;;;;;;7.75;7.75;;;;;43.35;15.48;101546.84;4974637;28;45381;-58
2023/10/10 12:15:59;;;;;;;;;9.50;6.25;;;;;44.37;15.12;101546.47;4979464;28;45727;-60
2023/10/10 12:18:31;;;;;;;;;7.75;7.25;;;;;44.67;14.74;101542.03;4979889;28;45270;-58
2023/10/10 12:21:01;;;;;;;;;8.25;5.75;;;;;45.29;14.49;101538.25;4979706;28;45378;-58
2023/10/10 12:23:27;;;;;;;;;8.50;7.75;;;;;44.63;14.18;101527.63;4979604;28;45335;-58
2023/10/10 12:25:54;;;;;;;;;6.75;6.50;;;;;45.43;13.79;101531.72;4979475;28;45361;-58
2023/10/10 12:28:20;;;;;;;;;9.75;9.00;;;;;45.93;14.22;101530.06;4982411;28;45421;-57
2023/10/10 12:30:46;;;;;;;;;9.50;6.00;;;;;46.05;13.65;101527.72;4965148;28;45441;-57
2023/10/10 12:33:12;;;;;;;;;8.25;8.00;;;;;46.75;13.34;101522.94;4982887;28;45277;-58
2023/10/10 12:35:47;;;;;;;;;10.50;7.25;;;;;46.30;12.59;101529.66;4982476;28;45440;-57
2023/10/10 12:38:20;;;;;;;;;5.50;4.75;;;;;46.27;12.58;101525.44;4982799;28;45470;-57
2023/10/10 12:40:48;;;;;;;;;6.00;6.00;;;;;46.33;12.93;101515.75;4983119;28;45303;-58
2023/10/10 12:43:14;;;;;;;;;9.00;7.75;;;;;46.63;13.02;101523.28;4982388;28;45269;-57
2023/10/10 12:45:39;;;;;;;;;8.00;6.25;;;;;47.09;12.68;101513.63;4982732;28;46208;-58
2023/10/10 12:48:13;;;;;;;;;7.25;7.25;;;;;47.36;12.50;101525.38;4982083;28;59935;-57
2023/10/10 12:50:42;;;;;;;;;10.25;7.00;;;;;45.67;13.02;101511.38;4982535;28;45244;-57
2023/10/10 12:53:07;;;;;;;;;9.00;6.00;;;;;45.03;14.42;101509.03;4982376;28;45304;-58
2023/10/10 12:55:48;;;;;;;;;6.75;6.25;;;;;43.69;14.88;101500.25;4975536;28;46386;-57
2023/10/10 12:58:16;;;;;;;;;9.50;7.25;;;;;42.83;15.33;101501.41;4982366;28;45217;-58
2023/10/10 13:00:50;;;;;;;;;7.25;7.00;;;;;42.41;15.54;101495.56;4982550;28;45262;-57
2023/10/10 13:03:20;;;;;;;;;9.25;7.25;;;;;42.41;15.85;101498.38;4982722;28;45248;-58
2023/10/10 13:05:47;;;;;;;;;6.00;6.00;;;;;42.94;16.13;101497.59;4982383;28;46378;-57
2023/10/10 13:08:18;;;;;;;;;12.75;7.50;;;;;43.35;16.07;101490.38;4973326;28;45251;-58
2023/10/10 13:10:44;;;;;;;;;8.25;6.25;;;;;43.41;14.79;101497.75;4977508;28;45473;-58
2023/10/10 13:13:09;;;;;;;;;8.00;8.00;;;;;43.91;15.52;101493.59;4982219;28;45586;-58
2023/10/10 13:15:49;;;;;;;;;6.75;6.00;;;;;44.53;14.35;101492.78;4982137;28;45970;-57
2023/10/10 13:18:20;;;;;;;;;11.50;6.50;;;;;44.84;14.36;101489.78;4981722;28;45235;-57
2023/10/10 13:20:53;;;;;;;;;8.00;7.25;;;;;45.12;14.00;101488.44;4982302;28;45438;-56
2023/10/10 13:23:20;;;;;;;;;8.75;7.00;;;;;45.45;14.03;101484.16;4982173;28;45327;-58
2023/10/10 13:25:48;;;;;;;;;6.50;6.50;;;;;45.37;13.78;101481.06;4982327;28;47017;-58
2023/10/10 13:28:17;;;;;;;;;4.50;4.50;;;;;45.57;13.66;101481.91;4981897;28;45236;-58
2023/10/10 13:30:46;;;;;;;;;6.25;6.25;;;;;45.60;13.56;101481.31;4981887;28;45334;-57
2023/10/10 13:33:12;;;;;;;;;9.00;6.50;;;;;45.81;13.43;101489.78;4981098;28;45569;-57
2023/10/10 13:35:38;;;;;;;;;9.75;7.75;;;;;45.76;13.26;101473.66;4982253;28;45398;-58
2023/10/10 13:38:06;;;;;;;;;7.00;5.50;;;;;45.76;13.66;101472.81;4980647;28;45264;-57
2023/10/10 13:40:37;;;;;;;;;8.00;4.75;;;;;45.10;13.71;101475.69;4981947;28;45314;-57
2023/10/10 13:43:08;;;;;;;;;8.25;7.00;;;;;44.76;13.59;101475.31;4981780;28;46312;-58
2023/10/10 13:45:38;;;;;;;;;7.50;7.50;;;;;44.94;14.05;101468.28;4964209;28;45378;-58
2023/10/10 13:48:13;;;;;;;;;6.25;6.25;;;;;45.31;13.97;101477.38;4981460;28;45192;-57
2023/10/10 13:50:42;;;;;;;;;7.00;7.00;;;;;44.80;13.63;101474.50;4982090;28;45225;-57
2023/10/10 13:53:12;;;;;;;;;6.00;6.00;;;;;44.58;14.05;101467.38;4981586;28;45287;-58
2023/10/10 13:55:42;;;;;;;;;6.75;5.50;;;;;44.94;13.99;101477.63;4980525;28;45438;-59
2023/10/10 13:58:11;;;;;;;;;6.00;6.00;;;;;44.97;14.08;101473.38;4981386;28;45424;-57
2023/10/10 14:00:39;;;;;;;;;7.75;5.75;;;;;44.48;13.61;101471.88;4981273;28;46738;-58
2023/10/10 14:03:05;;;;;;;;;7.75;7.00;;;;;44.34;14.21;101475.47;4980965;28;45239;-58
2023/10/10 14:05:35;;;;;;;;;5.50;4.75;;;;;44.32;14.04;101470.06;4981441;28;46074;-58
2023/10/10 14:08:17;;;;;;;;;11.00;6.75;;;;;44.56;13.87;101469.63;4973856;28;45380;-58
2023/10/10 14:10:43;;;;;;;;;9.50;7.00;;;;;43.90;14.25;101474.97;4977883;28;45364;-58
2023/10/10 14:13:20;;;;;;;;;2.00;2.00;;;;;43.52;14.04;101467.63;4981376;28;45315;-59
2023/10/10 14:15:54;;;;;;;;;6.75;6.75;;;;;43.82;14.21;101459.34;4981357;28;45372;-58
2023/10/10 14:18:30;;;;;;;;;10.00;6.75;;;;;42.97;15.07;101457.53;4981340;28;45438;-57
2023/10/10 14:21:00;;;;;;;;;3.75;2.75;;;;;42.91;15.39;101462.28;4981537;28;45387;-58
2023/10/10 14:23:26;;;;;;;;;8.00;6.25;;;;;43.17;14.50;101451.25;4981291;28;46572;-57
2023/10/10 14:25:51;;;;;;;;;5.25;5.25;;;;;43.22;15.89;101456.94;4981362;28;46305;-58
2023/10/10 14:28:18;;;;;;;;;6.00;5.25;;;;;43.61;14.55;101455.56;4981074;28;45281;-57
2023/10/10 14:30:50;;;;;;;;;12.75;6.25;;;;;43.34;14.42;101451.97;4981223;28;45354;-57
2023/10/10 14:33:17;;;;;;;;;7.00;6.25;;;;;43.06;14.65;101455.94;4981053;28;45255;-58
2023/10/10 14:35:46;;;;;;;;;6.00;5.25;;;;;42.61;15.60;101454.38;4980516;28;45481;-58
2023/10/10 14:38:15;;;;;;;;;7.25;6.50;;;;;42.65;15.54;101449.03;4981047;28;45323;-58
2023/10/10 14:40:42;;;;;;;;;5.00;5.00;;;;;42.72;15.21;101449.66;4981221;28;45216;-58
2023/10/10 14:43:09;;;;;;;;;6.00;6.00;;;;;42.58;15.00;101451.22;4980758;28;45590;-57
2023/10/10 14:45:34;;;;;;;;;7.50;6.75;;;;;42.67;15.72;101444.81;4980707;28;46624;-58
2023/10/10 14:48:04;;;;;;;;;7.25;7.00;;;;;42.99;15.30;101450.50;4980704;28;45311;-58
2023/10/10 14:50:36;;;;;;;;;7.00;7.00;;;;;42.96;15.05;101451.03;4980085;28;45305;-58
2023/10/10 14:53:08;;;;;;;;;10.25;6.00;;;;;43.02;14.86;101435.88;4980667;28;45447;-57
2023/10/10 14:55:40;;;;;;;;;6.00;5.25;;;;;42.69;14.06;101438.94;4979637;28;46206;-56
2023/10/10 14:58:09;;;;;;;;;4.00;4.00;;;;;42.70;14.51;101440.63;4980594;28;45272;-57
2023/10/10 15:00:41;;;;;;;;;7.00;6.25;;;;;42.49;14.58;101439.56;4979884;28;45463;-57
2023/10/10 15:03:15;;;;;;;;;7.50;5.75;;;;;42.10;14.34;101424.72;4980630;28;45476;-58
2023/10/10 15:05:49;;;;;;;;;4.75;4.50;;;;;42.35;15.11;101427.00;4980431;28;46311;-57
2023/10/10 15:08:15;;;;;;;;;5.50;4.25;;;;;42.24;14.86;101430.78;4970307;28;45268;-57
2023/10/10 15:10:40;;;;;;;;;4.25;1.00;;;;;41.87;15.15;101434.22;4976899;28;45199;-56
2023/10/10 15:13:08;;;;;;;;;5.00;5.00;;;;;41.84;15.30;101429.13;4979664;28;61471;-57
2023/10/10 15:15:34;;;;;;;;;6.25;5.00;;;;;41.96;15.32;101430.97;4980442;28;47141;-57
2023/10/10 15:18:00;;;;;;;;;5.25;4.25;;;;;41.81;14.56;101440.06;4980520;28;45881;-58
2023/10/10 15:20:27;;;;;;;;;6.75;5.25;;;;;41.34;15.45;101422.72;4980532;28;45478;-57
2023/10/10 15:22:53;;;;;;;;;6.00;6.00;;;;;41.55;15.71;101422.78;4962618;28;46154;-57
2023/10/10 15:25:19;;;;;;;;;7.50;7.00;;;;;41.40;15.05;101425.34;4980168;28;45223;-58
2023/10/10 15:27:44;;;;;;;;;9.00;6.00;;;;;41.57;15.12;101424.50;4980127;28;45223;-58
2023/10/10 15:30:10;;;;;;;;;10.00;7.50;;;;;41.54;15.09;101423.06;4980058;28;45449;-59
2023/10/10 15:32:46;;;;;;;;;7.50;5.25;;;;;41.44;15.21;101417.22;4979863;28;45224;-58
2023/10/10 15:35:12;;;;;;;;;5.25;5.25;;;;;41.19;15.26;101400.81;4979910;28;46299;-58
2023/10/10 15:37:42;;;;;;;;;5.50;5.50;;;;;41.27;15.75;101422.03;4980257;28;45301;-57
2023/10/10 15:40:21;;;;;;;;;3.75;3.75;;;;;41.25;15.09;101427.94;4979995;28;45655;-58
2023/10/10 15:42:48;;;;;;;;;5.75;5.75;;;;;41.10;15.40;101422.91;4979572;28;45413;-59
2023/10/10 15:45:20;;;;;;;;;5.00;5.00;;;;;40.38;15.78;101417.06;4979140;28;45380;-58
2023/10/10 15:47:49;;;;;;;;;4.75;4.50;;;;;40.29;16.14;101418.56;4979727;28;45317;-58
2023/10/10 15:50:16;;;;;;;;;7.50;7.00;;;;;40.16;16.63;101412.31;4979773;28;45288;-58
2023/10/10 15:52:51;;;;;;;;;8.25;6.50;;;;;39.95;16.47;101413.88;4979674;28;45529;-58
2023/10/10 15:55:24;;;;;;;;;8.75;6.00;;;;;39.53;16.85;101401.97;4979576;28;46384;-58
2023/10/10 15:57:53;;;;;;;;;6.50;6.50;;;;;39.52;17.18;101401.09;4979590;28;45318;-58
2023/10/10 16:00:32;;;;;;;;;5.25;1.75;;;;;39.54;16.85;101412.09;4980007;28;45290;-59
2023/10/10 16:02:58;;;;;;;;;5.75;5.75;;;;;39.46;17.21;101402.09;4978631;28;45306;-58
2023/10/10 16:05:25;;;;;;;;;8.00;6.75;;;;;39.13;17.61;101408.25;4979789;28;45404;-58
2023/10/10 16:07:50;;;;;;;;;4.25;4.25;;;;;39.04;17.51;101394.88;4973474;28;45363;-58
2023/10/10 16:10:17;;;;;;;;;6.25;5.00;;;;;39.08;17.87;101407.28;4972653;28;45246;-57
2023/10/10 16:12:43;;;;;;;;;7.25;5.50;;;;;38.90;17.80;101397.84;4979409;28;45446;-57
2023/10/10 16:15:11;;;;;;;;;7.00;6.50;;;;;38.80;17.78;101400.38;4979437;28;45188;-58
2023/10/10 16:17:36;;;;;;;;;7.00;6.00;;;;;38.68;18.29;101393.06;4979482;28;45243;-58
2023/10/10 16:20:06;;;;;;;;;11.00;7.75;;;;;38.64;18.53;101403.88;4979708;28;45447;-57
2023/10/10 16:22:35;;;;;;;;;6.00;6.00;;;;;38.54;18.45;101395.19;4962746;28;46174;-56
2023/10/10 16:25:00;;;;;;;;;6.00;5.75;;;;;38.40;18.37;101396.47;4978413;28;46288;-58
2023/10/10 16:27:26;;;;;;;;;6.00;6.00;;;;;38.27;18.64;101399.47;4979551;28;45624;-57
2023/10/10 16:29:55;;;;;;;;;7.25;7.25;;;;;38.13;19.15;101401.59;4979276;28;45601;-57
2023/10/10 16:32:20;;;;;;;;;5.00;5.00;;;;;37.88;18.90;101390.47;4978061;28;45302;-53
2023/10/10 16:34:46;;;;;;;;;8.00;6.75;;;;;37.82;19.37;101405.41;4978931;28;57855;-51
2023/10/10 16:37:14;;;;;;;;;9.50;6.00;;;;;37.62;19.31;101402.84;4979554;28;45266;-52
2023/10/10 16:39:44;;;;;;;;;7.75;6.25;;;;;37.54;19.71;101397.50;4979439;28;45237;-51
2023/10/10 16:42:09;;;;;;;;;7.50;5.75;;;;;37.39;19.94;101400.69;4979256;28;45479;-54
2023/10/10 16:44:36;;;;;;;;;9.75;8.00;;;;;37.31;19.57;101402.94;4979039;28;46162;-52
2023/10/10 16:47:02;;;;;;;;;9.50;7.25;;;;;37.23;20.13;101409.69;4979155;28;45322;-53
2023/10/10 16:49:27;;;;;;;;;9.50;7.25;;;;;37.13;20.53;101399.00;4975251;28;45369;-53
2023/10/10 16:51:54;;;;;;;;;9.75;7.00;;;;;37.03;19.97;101408.97;4959582;28;45266;-50
2023/10/10 16:54:20;;;;;;;;;8.50;6.00;;;;;36.92;20.60;101404.97;4966164;28;46318;-53
2023/10/10 16:56:45;;;;;;;;;8.75;7.25;;;;;36.90;20.91;101409.94;4962576;28;45316;-50
2023/10/10 16:59:12;;;;;;;;;7.50;7.50;;;;;36.80;20.89;101406.81;4978999;28;45168;-54
2023/10/10 17:01:38;;;;;;;;;6.50;6.50;;;;;36.63;20.87;101408.41;4979056;28;45323;-53
2023/10/10 17:04:03;;;;;;;;;10.00;7.25;;;;;36.68;21.13;101408.59;4978849;28;46211;-54
2023/10/10 17:06:31;;;;;;;;;5.75;5.75;;;;;36.56;21.19;101414.03;4979211;28;45323;-52
2023/10/10 17:08:59;;;;;;;;;9.25;8.75;;;;;36.54;21.23;101416.19;4965726;28;45294;-49
2023/10/10 17:11:25;;;;;;;;;8.50;6.50;;;;;36.40;21.42;101414.56;4978284;28;45248;-50
2023/10/10 17:13:52;;;;;;;;;12.50;8.50;;;;;36.35;21.33;101411.56;4980735;28;45224;-54
2023/10/10 17:16:28;;;;;;;;;8.25;8.00;;;;;36.22;21.62;101411.66;4982285;28;45357;-50
2023/10/10 17:18:54;;;;;;;;;11.00;9.75;;;;;35.96;21.66;101404.25;4981890;28;45361;-51
2023/10/10 17:21:20;;;;;;;;;9.25;7.00;;;;;36.04;21.89;101409.56;4982194;28;45408;-54
2023/10/10 17:23:47;;;;;;;;;7.50;7.25;;;;;35.96;21.55;101410.69;4982089;28;45363;-51
2023/10/10 17:26:15;;;;;;;;;7.50;7.50;;;;;35.87;21.69;101409.22;4982375;28;45427;-51
2023/10/10 17:28:41;;;;;;;;;6.00;6.00;;;;;35.80;21.83;101413.09;4981999;28;45252;-54
2023/10/10 17:31:07;;;;;;;;;9.25;7.25;;;;;35.46;22.32;101390.00;4981408;28;45279;-52
2023/10/10 17:33:34;;;;;;;;;6.75;6.75;;;;;35.50;22.15;101407.13;4981448;28;45311;-52
2023/10/10 17:36:00;;;;;;;;;7.25;6.25;;;;;35.37;22.41;101393.22;4982074;28;45300;-54
2023/10/10 17:38:28;;;;;;;;;7.25;7.25;;;;;35.39;22.30;101400.28;4982147;28;45336;-52